Time;durP1;ratioP1;P1;durP2;ratioP2;P2;SDS_P1;SDS_P2;PMS_P1;PMS_P2;Temp;Humidity;BMP_temperature;BMP_pressure;BME280_temperature;BME280_humidity;BME280_pressure;Samples;Min_cycle;Max_cycle;Signal;HPM_P1;HPM_P2
2023/09/01 00:00:20;;;;;;;;;;;;;;;13.61;75.82;100781.84;4197473;28;20063;-69
2023/09/01 00:02:36;;;;;;;;;;;;;;;13.58;75.72;100784.94;4197963;28;20023;-69
2023/09/01 00:04:46;;;;;;;;;;;;;;;13.54;75.96;100780.09;4198327;28;20020;-69
2023/09/01 00:06:48;;;;;;;;;;;;;;;13.48;76.04;100777.16;4197973;28;20030;-69
2023/09/01 00:08:51;;;;;;;;;;;;;;;13.46;76.14;100773.78;4198030;28;20011;-69
2023/09/01 00:10:52;;;;;;;;;;;;;;;13.44;75.98;100766.88;4197778;28;20139;-69
2023/09/01 00:12:54;;;;;;;;;;;;;;;13.42;76.39;100777.91;4197210;28;19937;-69
2023/09/01 00:14:56;;;;;;;;;;;;;;;13.42;76.28;100783.34;4197336;28;20011;-69
2023/09/01 00:16:58;;;;;;;;;;;;;;;13.40;75.89;100790.00;4197572;28;20434;-69
2023/09/01 00:19:00;;;;;;;;;;;;;;;13.32;76.33;100786.38;4197655;28;20019;-69
2023/09/01 00:21:04;;;;;;;;;;;;;;;13.29;76.62;100788.59;4197574;28;20031;-69
2023/09/01 00:23:06;;;;;;;;;;;;;;;13.29;76.32;100784.03;4197548;28;20019;-69
2023/09/01 00:25:09;;;;;;;;;;;;;;;13.29;76.46;100783.19;4195523;28;20106;-69
2023/09/01 00:27:11;;;;;;;;;;;;;;;13.26;76.38;100783.56;4197507;28;20019;-69
2023/09/01 00:29:13;;;;;;;;;;;;;;;13.28;76.44;100786.94;4195731;28;20023;-69
2023/09/01 00:31:16;;;;;;;;;;;;;;;13.27;76.02;100782.53;4195901;28;20027;-69
2023/09/01 00:33:18;;;;;;;;;;;;;;;13.25;76.38;100787.34;4197085;28;20026;-69
2023/09/01 00:35:20;;;;;;;;;;;;;;;13.24;76.43;100788.34;4187804;28;20011;-69
2023/09/01 00:37:24;;;;;;;;;;;;;;;13.25;76.47;100784.63;4188178;28;20434;-69
2023/09/01 00:39:25;;;;;;;;;;;;;;;13.25;76.24;100788.16;4196869;28;19982;-69
2023/09/01 00:41:27;;;;;;;;;;;;;;;13.25;76.39;100790.88;4197163;28;20019;-69
2023/09/01 00:43:30;;;;;;;;;;;;;;;13.26;76.05;100789.84;4195358;28;20023;-69
2023/09/01 00:45:32;;;;;;;;;;;;;;;13.24;76.03;100791.91;4197226;28;20733;-69
2023/09/01 00:47:34;;;;;;;;;;;;;;;13.23;75.82;100786.66;4197457;28;20015;-69
2023/09/01 00:49:36;;;;;;;;;;;;;;;13.21;75.89;100795.00;4196763;28;20019;-69
2023/09/01 00:51:38;;;;;;;;;;;;;;;13.21;75.95;100795.00;4195698;28;20031;-69
2023/09/01 00:53:41;;;;;;;;;;;;;;;13.19;75.64;100797.06;4197543;28;20019;-69
2023/09/01 00:55:43;;;;;;;;;;;;;;;13.15;76.03;100788.47;4197704;28;20023;-69
2023/09/01 00:57:45;;;;;;;;;;;;;;;13.15;75.79;100799.34;4196694;28;20023;-69
2023/09/01 00:59:46;;;;;;;;;;;;;;;13.09;75.86;100789.25;4197251;28;19924;-69
2023/09/01 01:01:48;;;;;;;;;;;;;;;13.07;76.25;100791.31;4194706;28;20118;-69
2023/09/01 01:03:51;;;;;;;;;;;;;;;13.05;76.06;100789.84;4197004;28;20011;-69
2023/09/01 01:05:58;;;;;;;;;;;;;;;13.02;76.19;100796.47;4195977;28;19996;-69
2023/09/01 01:08:00;;;;;;;;;;;;;;;13.02;76.13;100801.06;4196779;28;20019;-69
2023/09/01 01:10:04;;;;;;;;;;;;;;;12.97;76.17;100802.47;4196966;28;20019;-69
2023/09/01 01:12:05;;;;;;;;;;;;;;;12.96;76.36;100798.09;4196596;28;20037;-69
2023/09/01 01:14:09;;;;;;;;;;;;;;;12.97;76.47;100796.22;4195311;28;20016;-69
2023/09/01 01:16:11;;;;;;;;;;;;;;;12.95;76.54;100799.09;4196843;28;20465;-69
2023/09/01 01:18:12;;;;;;;;;;;;;;;12.94;76.53;100793.88;4196692;28;20028;-69
2023/09/01 01:20:31;;;;;;;;;;;;;;;12.94;76.35;100793.88;4195298;28;19925;-69
2023/09/01 01:22:35;;;;;;;;;;;;;;;12.92;76.37;100791.34;4196911;28;20539;-69
2023/09/01 01:24:38;;;;;;;;;;;;;;;12.91;76.47;100794.25;4187049;28;20015;-69
2023/09/01 01:26:40;;;;;;;;;;;;;;;12.87;76.48;100791.09;4195375;28;20360;-70
2023/09/01 01:28:44;;;;;;;;;;;;;;;12.86;76.66;100800.25;4196358;28;20433;-69
2023/09/01 01:30:46;;;;;;;;;;;;;;;12.87;76.43;100792.94;4196441;28;20048;-69
2023/09/01 01:32:47;;;;;;;;;;;;;;;12.88;76.48;100792.75;4196056;28;20028;-70
2023/09/01 01:34:50;;;;;;;;;;;;;;;12.91;76.32;100794.25;4196713;28;20015;-69
2023/09/01 01:36:54;;;;;;;;;;;;;;;12.91;76.66;100786.97;4196634;28;20015;-69
2023/09/01 01:38:57;;;;;;;;;;;;;;;12.92;76.34;100787.81;4187950;28;20075;-69
2023/09/01 01:41:02;;;;;;;;;;;;;;;12.90;76.18;100788.00;4193939;28;20019;-69
2023/09/01 01:43:05;;;;;;;;;;;;;;;12.91;76.19;100781.53;4196365;28;20052;-70
2023/09/01 01:45:08;;;;;;;;;;;;;;;12.92;76.24;100785.09;4196625;28;20023;-69
2023/09/01 01:47:11;;;;;;;;;;;;;;;12.91;76.21;100784.25;4196480;28;20019;-69
2023/09/01 01:49:13;;;;;;;;;;;;;;;12.92;75.96;100777.81;4196079;28;20015;-69
2023/09/01 01:51:15;;;;;;;;;;;;;;;12.92;75.88;100780.50;4194837;28;20007;-69
2023/09/01 01:53:16;;;;;;;;;;;;;;;12.89;76.05;100788.19;4196526;28;20449;-69
2023/09/01 01:55:19;;;;;;;;;;;;;;;12.88;76.08;100792.75;4187342;28;20473;-69
2023/09/01 01:57:23;;;;;;;;;;;;;;;12.87;75.78;100787.53;4196038;28;20030;-69
2023/09/01 01:59:25;;;;;;;;;;;;;;;12.84;75.98;100796.91;4177621;28;20392;-69
2023/09/01 02:01:27;;;;;;;;;;;;;;;12.81;76.24;100791.88;4193997;28;19924;-69
2023/09/01 02:03:29;;;;;;;;;;;;;;;12.80;76.25;100791.03;4195733;28;20032;-69
2023/09/01 02:05:32;;;;;;;;;;;;;;;12.79;75.96;100796.66;4194914;28;20019;-69
2023/09/01 02:07:34;;;;;;;;;;;;;;;12.78;76.24;100792.25;4194766;28;20477;-69
2023/09/01 02:09:36;;;;;;;;;;;;;;;12.75;76.14;100784.50;4193723;28;20367;-69
2023/09/01 02:11:38;;;;;;;;;;;;;;;12.74;76.19;100788.22;4195484;28;20019;-69
2023/09/01 02:13:44;;;;;;;;;;;;;;;12.70;76.47;100790.47;4195224;28;20020;-69
2023/09/01 02:15:53;;;;;;;;;;;;;;;12.72;76.31;100787.59;4187012;28;20023;-69
2023/09/01 02:17:55;;;;;;;;;;;;;;;12.70;76.11;100789.66;4191691;28;20023;-69
2023/09/01 02:19:57;;;;;;;;;;;;;;;12.69;76.57;100796.91;4195120;28;20040;-69
2023/09/01 02:21:59;;;;;;;;;;;;;;;12.68;76.40;100794.41;4194061;28;19958;-69
2023/09/01 02:24:01;;;;;;;;;;;;;;;12.66;76.22;100786.47;4195774;28;20015;-69
2023/09/01 02:26:04;;;;;;;;;;;;;;;12.66;76.43;100791.03;4193850;28;19964;-69
2023/09/01 02:28:05;;;;;;;;;;;;;;;12.65;76.33;100794.78;4195239;28;20043;-69
2023/09/01 02:30:10;;;;;;;;;;;;;;;12.66;76.08;100788.34;4195472;28;20397;-69
2023/09/01 02:32:12;;;;;;;;;;;;;;;12.64;76.36;100791.25;4193987;28;20023;-69
2023/09/01 02:34:15;;;;;;;;;;;;;;;12.64;76.31;100791.25;4194682;28;20027;-70
2023/09/01 02:36:27;;;;;;;;;;;;;;;12.59;76.47;100796.38;4194616;28;20019;-70
2023/09/01 02:38:29;;;;;;;;;;;;;;;12.56;76.45;100797.59;4203987;28;20067;-70
2023/09/01 02:40:32;;;;;;;;;;;;;;;12.56;76.51;100791.34;4187101;28;19928;-69
2023/09/01 02:42:34;;;;;;;;;;;;;;;12.57;76.54;100790.28;4195256;28;19928;-69
2023/09/01 02:44:38;;;;;;;;;;;;;;;12.53;76.38;100791.72;4195400;28;20045;-69
2023/09/01 02:46:41;;;;;;;;;;;;;;;12.51;76.73;100793.78;4194657;28;20007;-69
2023/09/01 02:48:43;;;;;;;;;;;;;;;12.50;76.47;100806.47;4194354;28;20038;-70
2023/09/01 02:50:46;;;;;;;;;;;;;;;12.50;76.43;100805.66;4193602;28;20027;-70
2023/09/01 02:52:47;;;;;;;;;;;;;;;12.49;76.49;100807.53;4195385;28;20026;-70
2023/09/01 02:54:49;;;;;;;;;;;;;;;12.47;76.71;100804.16;4194987;28;19964;-70
2023/09/01 02:56:51;;;;;;;;;;;;;;;12.44;76.52;100804.50;4195252;28;20011;-70
2023/09/01 02:58:53;;;;;;;;;;;;;;;12.43;76.34;100802.84;4184205;28;20028;-70
2023/09/01 03:00:54;;;;;;;;;;;;;;;12.43;76.79;100802.84;4193710;28;20015;-69
2023/09/01 03:02:57;;;;;;;;;;;;;;;12.42;76.47;100793.88;4193577;28;20925;-69
2023/09/01 03:04:59;;;;;;;;;;;;;;;12.41;76.49;100808.47;4210306;28;20034;-69
2023/09/01 03:07:01;;;;;;;;;;;;;;;12.39;76.63;100802.38;4193076;28;20469;-69
2023/09/01 03:09:04;;;;;;;;;;;;;;;12.36;76.72;100807.34;4192445;28;20011;-69
2023/09/01 03:11:06;;;;;;;;;;;;;;;12.33;76.46;100805.00;4194725;28;20015;-70
2023/09/01 03:13:08;;;;;;;;;;;;;;;12.31;76.54;100809.75;4193318;28;20011;-70
2023/09/01 03:15:11;;;;;;;;;;;;;;;12.31;76.99;100812.47;4185399;28;20039;-69
2023/09/01 03:17:13;;;;;;;;;;;;;;;12.31;76.67;100812.47;4185796;28;20027;-70
2023/09/01 03:19:17;;;;;;;;;;;;;;;12.32;76.73;100819.56;4194301;28;20012;-70
2023/09/01 03:21:19;;;;;;;;;;;;;;;12.32;76.63;100819.56;4192786;28;20484;-70
2023/09/01 03:23:22;;;;;;;;;;;;;;;12.30;76.73;100818.91;4194996;28;19931;-69
2023/09/01 03:25:24;;;;;;;;;;;;;;;12.27;76.58;100817.41;4198137;28;20007;-69
2023/09/01 03:27:26;;;;;;;;;;;;;;;12.24;76.84;100813.22;4198751;28;20043;-70
2023/09/01 03:29:28;;;;;;;;;;;;;;;12.21;76.70;100808.19;4198063;28;20011;-69
2023/09/01 03:31:31;;;;;;;;;;;;;;;12.21;76.70;100816.28;4198622;28;20027;-70
2023/09/01 03:33:36;;;;;;;;;;;;;;;12.19;76.70;100821.03;4197454;28;20365;-70
2023/09/01 03:35:39;;;;;;;;;;;;;;;12.18;76.74;100822.09;4198886;28;20023;-69
2023/09/01 03:37:41;;;;;;;;;;;;;;;12.16;76.97;100815.16;4198286;28;20027;-70
2023/09/01 03:39:43;;;;;;;;;;;;;;;12.13;76.98;100819.09;4196149;28;20031;-70
2023/09/01 03:41:45;;;;;;;;;;;;;;;12.11;76.86;100815.72;4196923;28;20074;-70
2023/09/01 03:43:47;;;;;;;;;;;;;;;12.10;77.01;100822.19;4196389;28;20418;-70
2023/09/01 03:45:49;;;;;;;;;;;;;;;12.04;77.21;100821.03;4196452;28;20450;-70
2023/09/01 03:47:51;;;;;;;;;;;;;;;12.03;77.41;100819.34;4196281;28;20039;-70
2023/09/01 03:49:53;;;;;;;;;;;;;;;12.00;77.65;100816.19;4188497;28;20034;-70
2023/09/01 03:51:57;;;;;;;;;;;;;;;11.96;77.96;100825.69;4195994;28;20083;-70
2023/09/01 03:53:58;;;;;;;;;;;;;;;11.93;78.02;100829.63;4197903;28;20019;-70
2023/09/01 03:56:00;;;;;;;;;;;;;;;11.93;78.03;100837.72;4196991;28;20027;-69
2023/09/01 03:58:02;;;;;;;;;;;;;;;11.92;78.24;100843.31;4188735;28;20023;-70
2023/09/01 04:00:05;;;;;;;;;;;;;;;11.90;78.39;100825.38;4188054;28;20016;-70
2023/09/01 04:02:16;;;;;;;;;;;;;;;11.89;78.33;100833.66;4198596;28;20033;-69
2023/09/01 04:04:18;;;;;;;;;;;;;;;11.89;78.45;100833.66;4196609;28;20406;-70
2023/09/01 04:06:20;;;;;;;;;;;;;;;11.89;78.46;100818.25;4196569;28;20027;-70
2023/09/01 04:08:23;;;;;;;;;;;;;;;11.89;77.99;100820.97;4196580;28;20507;-70
2023/09/01 04:10:25;;;;;;;;;;;;;;;11.88;78.07;100816.59;4195811;28;20040;-70
2023/09/01 04:12:27;;;;;;;;;;;;;;;11.87;78.44;100833.03;4196693;28;20020;-69
2023/09/01 04:14:29;;;;;;;;;;;;;;;11.84;78.53;100828.81;4197485;28;20023;-70
2023/09/01 04:16:31;;;;;;;;;;;;;;;11.83;78.53;100829.84;4196394;28;20011;-69
2023/09/01 04:18:32;;;;;;;;;;;;;;;11.81;78.67;100831.88;4195969;28;20043;-70
2023/09/01 04:20:34;;;;;;;;;;;;;;;11.79;78.83;100836.63;4195323;28;20062;-70
2023/09/01 04:22:38;;;;;;;;;;;;;;;11.78;78.49;100831.41;4195855;28;20011;-70
2023/09/01 04:24:43;;;;;;;;;;;;;;;11.78;78.73;100831.41;4195958;28;20421;-70
2023/09/01 04:26:44;;;;;;;;;;;;;;;11.78;79.00;100840.34;4196959;28;20027;-70
2023/09/01 04:28:46;;;;;;;;;;;;;;;11.77;79.17;100835.13;4203360;28;20542;-70
2023/09/01 04:30:48;;;;;;;;;;;;;;;11.75;78.97;100838.00;4196254;28;20031;-70
2023/09/01 04:32:51;;;;;;;;;;;;;;;11.76;78.92;100841.59;4196570;28;20015;-69
2023/09/01 04:34:53;;;;;;;;;;;;;;;11.75;79.23;100843.44;4196373;28;20024;-69
2023/09/01 04:36:55;;;;;;;;;;;;;;;11.77;79.27;100840.53;4197492;28;20471;-70
2023/09/01 04:38:57;;;;;;;;;;;;;;;11.77;79.31;100843.25;4187921;28;20047;-70
2023/09/01 04:41:01;;;;;;;;;;;;;;;11.77;79.34;100844.09;4196082;28;20027;-69
2023/09/01 04:43:05;;;;;;;;;;;;;;;11.76;79.08;100847.81;4212124;28;20042;-70
2023/09/01 04:45:08;;;;;;;;;;;;;;;11.75;79.12;100854.25;4195102;28;19929;-70
2023/09/01 04:47:10;;;;;;;;;;;;;;;11.76;79.22;100855.94;4197414;28;20011;-70
2023/09/01 04:49:13;;;;;;;;;;;;;;;11.74;79.32;100855.28;4187213;28;20003;-70
2023/09/01 04:51:16;;;;;;;;;;;;;;;11.73;79.26;100853.59;4185623;28;20498;-70
2023/09/01 04:53:18;;;;;;;;;;;;;;;11.72;79.33;100849.19;4204128;28;20019;-70
2023/09/01 04:55:20;;;;;;;;;;;;;;;11.72;79.66;100846.50;4186153;28;20039;-70
2023/09/01 04:57:24;;;;;;;;;;;;;;;11.74;79.57;100852.59;4188128;28;20016;-70
2023/09/01 04:59:26;;;;;;;;;;;;;;;11.76;79.34;100853.25;4210655;28;20019;-70
2023/09/01 05:01:28;;;;;;;;;;;;;;;11.76;79.27;100853.25;4195372;28;20031;-69
2023/09/01 05:03:30;;;;;;;;;;;;;;;11.77;79.26;100848.66;4195969;28;20036;-70
2023/09/01 05:05:32;;;;;;;;;;;;;;;11.75;79.74;100854.25;4194897;28;20380;-69
2023/09/01 05:07:34;;;;;;;;;;;;;;;11.75;79.58;100862.38;4196007;28;20023;-69
2023/09/01 05:09:36;;;;;;;;;;;;;;;11.73;80.14;100854.44;4196302;28;20036;-70
2023/09/01 05:11:38;;;;;;;;;;;;;;;11.76;79.93;100857.81;4194936;28;20015;-70
2023/09/01 05:13:41;;;;;;;;;;;;;;;11.77;80.01;100862.19;4194905;28;20083;-69
2023/09/01 05:15:43;;;;;;;;;;;;;;;11.78;79.77;100858.47;4183188;28;20082;-69
2023/09/01 05:17:47;;;;;;;;;;;;;;;11.80;79.99;100861.81;4187831;28;20023;-70
2023/09/01 05:19:49;;;;;;;;;;;;;;;11.79;80.15;100852.88;4203768;28;20030;-70
2023/09/01 05:21:51;;;;;;;;;;;;;;;11.80;80.68;100859.13;4185857;28;20035;-70
2023/09/01 05:23:53;;;;;;;;;;;;;;;11.81;80.56;100858.09;4176467;28;19925;-69
2023/09/01 05:25:56;;;;;;;;;;;;;;;11.82;80.40;100851.69;4211730;28;19935;-70
2023/09/01 05:27:58;;;;;;;;;;;;;;;11.84;80.47;100852.34;4196283;28;20462;-69
2023/09/01 05:30:02;;;;;;;;;;;;;;;11.85;80.13;100854.84;4195834;28;20035;-70
2023/09/01 05:32:05;;;;;;;;;;;;;;;11.87;80.22;100858.22;4186706;28;20023;-69
2023/09/01 05:34:07;;;;;;;;;;;;;;;11.89;80.65;100860.72;4211286;28;20048;-70
2023/09/01 05:36:10;;;;;;;;;;;;;;;11.90;80.82;100862.44;4202170;28;20015;-70
2023/09/01 05:38:12;;;;;;;;;;;;;;;11.93;80.73;100861.22;4194491;28;20055;-69
2023/09/01 05:40:17;;;;;;;;;;;;;;;11.94;80.93;100862.94;4177977;28;20023;-69
2023/09/01 05:42:19;;;;;;;;;;;;;;;11.97;81.01;100870.69;4197082;28;20032;-69
2023/09/01 05:44:21;;;;;;;;;;;;;;;11.98;81.61;100875.91;4169542;28;19940;-70
2023/09/01 05:46:25;;;;;;;;;;;;;;;11.99;81.91;100874.03;4202468;28;20011;-69
2023/09/01 05:48:27;;;;;;;;;;;;;;;12.01;81.86;100870.13;4169913;28;20029;-68
2023/09/01 05:50:29;;;;;;;;;;;;;;;12.02;81.65;100871.81;4185463;28;20024;-70
2023/09/01 05:52:30;;;;;;;;;;;;;;;12.06;81.97;100875.00;4196008;28;19974;-69
2023/09/01 05:54:32;;;;;;;;;;;;;;;12.08;81.91;100876.50;4195399;28;19968;-70
2023/09/01 05:56:34;;;;;;;;;;;;;;;12.11;81.41;100869.03;4196269;28;20019;-69
2023/09/01 05:58:38;;;;;;;;;;;;;;;12.14;81.53;100880.31;4194597;28;20032;-69
2023/09/01 06:00:40;;;;;;;;;;;;;;;12.18;81.46;100888.94;4195188;28;20506;-69
2023/09/01 06:02:43;;;;;;;;;;;;;;;12.20;81.33;100882.31;4195561;28;20011;-69
2023/09/01 06:04:44;;;;;;;;;;;;;;;12.23;81.73;100886.53;4194684;28;20012;-69
2023/09/01 06:06:46;;;;;;;;;;;;;;;12.26;81.63;100886.97;4196884;28;19935;-69
2023/09/01 06:08:48;;;;;;;;;;;;;;;12.29;81.80;100903.88;4193009;28;20019;-69
2023/09/01 06:10:50;;;;;;;;;;;;;;;12.30;81.83;100887.44;4194654;28;20019;-68
2023/09/01 06:12:53;;;;;;;;;;;;;;;12.33;82.01;100897.06;4194381;28;20913;-69
2023/09/01 06:14:55;;;;;;;;;;;;;;;12.36;81.89;100899.41;4195629;28;20028;-69
2023/09/01 06:16:57;;;;;;;;;;;;;;;12.39;81.61;100885.50;4195147;28;20036;-68
2023/09/01 06:19:00;;;;;;;;;;;;;;;12.43;81.45;100892.25;4195036;28;20019;-68
2023/09/01 06:21:03;;;;;;;;;;;;;;;12.47;81.59;100898.13;4194678;28;20019;-68
2023/09/01 06:23:05;;;;;;;;;;;;;;;12.50;81.20;100898.59;4195053;28;20044;-68
2023/09/01 06:25:07;;;;;;;;;;;;;;;12.56;81.24;100897.00;4194681;28;19974;-68
2023/09/01 06:27:09;;;;;;;;;;;;;;;12.59;81.21;100904.75;4195860;28;19972;-68
2023/09/01 06:29:12;;;;;;;;;;;;;;;12.62;80.96;100902.50;4195682;28;20012;-67
2023/09/01 06:31:13;;;;;;;;;;;;;;;12.67;81.14;100906.53;4195488;28;20032;-68
2023/09/01 06:33:15;;;;;;;;;;;;;;;12.70;80.85;100914.31;4201984;28;20031;-68
2023/09/01 06:35:18;;;;;;;;;;;;;;;12.74;80.96;100915.59;4193872;28;20011;-68
2023/09/01 06:37:19;;;;;;;;;;;;;;;12.77;80.93;100912.50;4195602;28;20047;-69
2023/09/01 06:39:21;;;;;;;;;;;;;;;12.80;80.52;100913.00;4194810;28;19925;-68
2023/09/01 06:41:23;;;;;;;;;;;;;;;12.84;80.32;100921.59;4195150;28;20027;-68
2023/09/01 06:43:26;;;;;;;;;;;;;;;12.87;80.60;100910.38;4195394;28;20067;-69
2023/09/01 06:45:27;;;;;;;;;;;;;;;12.91;80.24;100906.22;4195879;28;20015;-68
2023/09/01 06:47:29;;;;;;;;;;;;;;;12.94;80.58;100900.44;4195237;28;20040;-68
2023/09/01 06:49:31;;;;;;;;;;;;;;;12.98;80.22;100909.88;4195085;28;20028;-68
2023/09/01 06:51:35;;;;;;;;;;;;;;;13.02;80.34;100906.78;4194955;28;20019;-68
2023/09/01 06:53:37;;;;;;;;;;;;;;;13.06;80.56;100902.69;4194984;28;20047;-68
2023/09/01 06:55:39;;;;;;;;;;;;;;;13.08;80.42;100903.34;4193899;28;20018;-68
2023/09/01 06:57:41;;;;;;;;;;;;;;;13.12;79.95;100907.34;4195581;28;20019;-69
2023/09/01 06:59:43;;;;;;;;;;;;;;;13.15;79.82;100912.41;4181457;28;20023;-69
2023/09/01 07:01:45;;;;;;;;;;;;;;;13.19;79.16;100910.13;4195181;28;20028;-69
2023/09/01 07:03:46;;;;;;;;;;;;;;;13.23;79.33;100914.13;4195135;28;20015;-67
2023/09/01 07:05:55;;;;;;;;;;;;;;;13.26;79.10;100917.31;4195313;28;20359;-68
2023/09/01 07:07:59;;;;;;;;;;;;;;;13.31;79.43;100923.00;4195050;28;19979;-68
2023/09/01 07:10:01;;;;;;;;;;;;;;;13.36;79.69;100927.91;4195361;28;20374;-69
2023/09/01 07:12:03;;;;;;;;;;;;;;;13.40;79.76;100920.22;4195211;28;20019;-68
2023/09/01 07:14:05;;;;;;;;;;;;;;;13.43;79.60;100917.97;4194963;28;20453;-68
2023/09/01 07:16:07;;;;;;;;;;;;;;;13.47;79.02;100919.25;4195951;28;19932;-68
2023/09/01 07:18:09;;;;;;;;;;;;;;;13.52;79.20;100916.78;4194974;28;20018;-68
2023/09/01 07:20:13;;;;;;;;;;;;;;;13.56;79.06;100917.28;4195325;28;20023;-68
2023/09/01 07:22:15;;;;;;;;;;;;;;;13.60;78.59;100917.72;4195251;28;20027;-68
2023/09/01 07:24:18;;;;;;;;;;;;;;;13.65;78.55;100926.13;4195253;28;20023;-68
2023/09/01 07:26:20;;;;;;;;;;;;;;;13.70;78.57;100929.94;4195136;28;20059;-68
2023/09/01 07:28:22;;;;;;;;;;;;;;;13.74;78.48;100930.38;4195106;28;19959;-68
2023/09/01 07:30:23;;;;;;;;;;;;;;;13.78;78.05;100928.16;4194882;28;20020;-69
2023/09/01 07:32:25;;;;;;;;;;;;;;;13.82;77.55;100934.84;4195120;28;19924;-68
2023/09/01 07:34:30;;;;;;;;;;;;;;;13.86;77.56;100936.16;4193663;28;20011;-69
2023/09/01 07:36:32;;;;;;;;;;;;;;;13.89;77.30;100930.34;4195494;28;20051;-69
2023/09/01 07:38:34;;;;;;;;;;;;;;;13.91;76.86;100933.69;4195061;28;20027;-69
2023/09/01 07:40:37;;;;;;;;;;;;;;;13.95;76.96;100937.72;4195025;28;20027;-68
2023/09/01 07:42:40;;;;;;;;;;;;;;;14.00;76.87;100937.97;4194671;28;20023;-68
2023/09/01 07:44:42;;;;;;;;;;;;;;;14.03;76.70;100934.84;4194915;28;20377;-68
2023/09/01 07:46:44;;;;;;;;;;;;;;;14.06;76.69;100941.78;4194857;28;20023;-67
2023/09/01 07:48:46;;;;;;;;;;;;;;;14.10;76.25;100934.06;4194555;28;20379;-68
2023/09/01 07:50:48;;;;;;;;;;;;;;;14.12;76.00;100935.56;4195043;28;20015;-68
2023/09/01 07:52:51;;;;;;;;;;;;;;;14.17;75.91;100937.66;4194611;28;20033;-68
2023/09/01 07:54:53;;;;;;;;;;;;;;;14.21;76.31;100944.41;4194969;28;20015;-69
2023/09/01 07:56:56;;;;;;;;;;;;;;;14.23;75.83;100932.31;4194837;28;19931;-69
2023/09/01 07:58:58;;;;;;;;;;;;;;;14.27;75.51;100937.34;4194195;28;20438;-69
2023/09/01 08:00:59;;;;;;;;;;;;;;;14.30;75.01;100945.94;4195144;28;20022;-69
2023/09/01 08:03:01;;;;;;;;;;;;;;;14.31;74.56;100947.63;4193561;28;20572;-69
2023/09/01 08:05:03;;;;;;;;;;;;;;;14.35;74.83;100938.03;4195321;28;20015;-69
2023/09/01 08:07:07;;;;;;;;;;;;;;;14.39;74.93;100950.19;4194491;28;20019;-69
2023/09/01 08:09:08;;;;;;;;;;;;;;;14.42;75.09;100944.38;4193203;28;19928;-68
2023/09/01 08:11:10;;;;;;;;;;;;;;;14.46;74.93;100946.69;4196283;28;20018;-69
2023/09/01 08:13:13;;;;;;;;;;;;;;;14.49;74.78;100935.44;4197830;28;20023;-68
2023/09/01 08:15:16;;;;;;;;;;;;;;;14.53;75.05;100951.16;4198590;28;20023;-68
2023/09/01 08:17:18;;;;;;;;;;;;;;;14.56;74.84;100937.16;4197667;28;20007;-68
2023/09/01 08:19:20;;;;;;;;;;;;;;;14.60;74.49;100943.06;4196775;28;20357;-68
2023/09/01 08:21:22;;;;;;;;;;;;;;;14.62;74.17;100945.59;4197780;28;20019;-68
2023/09/01 08:23:24;;;;;;;;;;;;;;;14.65;74.10;100945.19;4197454;28;20055;-69
2023/09/01 08:25:26;;;;;;;;;;;;;;;14.70;74.37;100948.13;4197314;28;20023;-69
2023/09/01 08:27:28;;;;;;;;;;;;;;;14.72;74.36;100944.19;4197820;28;20094;-69
2023/09/01 08:29:32;;;;;;;;;;;;;;;14.75;73.92;100951.13;4197675;28;20365;-69
2023/09/01 08:31:34;;;;;;;;;;;;;;;14.77;73.75;100944.41;4197533;28;20031;-69
2023/09/01 08:33:36;;;;;;;;;;;;;;;14.82;74.29;100943.81;4197543;28;20027;-69
2023/09/01 08:35:38;;;;;;;;;;;;;;;14.85;74.35;100937.97;4197628;28;20027;-69
2023/09/01 08:37:40;;;;;;;;;;;;;;;14.89;73.90;100946.56;4197336;28;20015;-69
2023/09/01 08:39:42;;;;;;;;;;;;;;;14.91;73.70;100952.66;4196661;28;20030;-69
2023/09/01 08:41:44;;;;;;;;;;;;;;;14.96;74.10;100955.63;4197356;28;20027;-69
2023/09/01 08:43:46;;;;;;;;;;;;;;;15.00;74.13;100958.78;4196806;28;20028;-69
2023/09/01 08:45:49;;;;;;;;;;;;;;;15.02;74.04;100943.94;4197247;28;20051;-69
2023/09/01 08:47:51;;;;;;;;;;;;;;;15.05;73.86;100948.97;4196834;28;20342;-69
2023/09/01 08:49:53;;;;;;;;;;;;;;;15.08;73.41;100951.28;4197216;28;20011;-69
2023/09/01 08:51:56;;;;;;;;;;;;;;;15.11;73.52;100952.78;4196945;28;20031;-69
2023/09/01 08:54:00;;;;;;;;;;;;;;;15.13;73.56;100948.81;4195316;28;20378;-69
2023/09/01 08:56:02;;;;;;;;;;;;;;;15.18;73.92;100958.25;4196607;28;20070;-69
2023/09/01 08:58:05;;;;;;;;;;;;;;;15.20;73.67;100943.38;4196733;28;20013;-69
2023/09/01 09:00:07;;;;;;;;;;;;;;;15.24;73.54;100954.72;4196691;28;20024;-68
2023/09/01 09:02:11;;;;;;;;;;;;;;;15.25;73.27;100950.94;4196469;28;19928;-68
2023/09/01 09:04:15;;;;;;;;;;;;;;;15.29;73.35;100949.50;4196909;28;20030;-68
2023/09/01 09:06:30;;;;;;;;;;;;;;;15.31;73.07;100953.72;4196819;28;20019;-68
2023/09/01 09:08:34;;;;;;;;;;;;;;;15.32;72.98;100952.66;4196250;28;20011;-68
2023/09/01 09:10:36;;;;;;;;;;;;;;;15.35;72.83;100953.31;4196250;28;20015;-68
2023/09/01 09:12:39;;;;;;;;;;;;;;;15.36;72.43;100953.09;4196256;28;20046;-68
2023/09/01 09:14:45;;;;;;;;;;;;;;;15.36;72.70;100947.66;4196217;28;20024;-68
2023/09/01 09:16:53;;;;;;;;;;;;;;;15.40;72.84;100953.53;4196529;28;20039;-68
2023/09/01 09:18:57;;;;;;;;;;;;;;;15.41;72.92;100956.03;4196437;28;20023;-68
2023/09/01 09:20:59;;;;;;;;;;;;;;;15.44;72.74;100958.34;4195859;28;20011;-68
2023/09/01 09:23:01;;;;;;;;;;;;;;;15.45;72.79;100949.16;4195451;28;20019;-68
2023/09/01 09:25:04;;;;;;;;;;;;;;;15.50;72.40;100943.94;4196154;28;20082;-68
2023/09/01 09:27:06;;;;;;;;;;;;;;;15.51;72.21;100952.94;4196435;28;20027;-68
2023/09/01 09:29:11;;;;;;;;;;;;;;;15.54;72.36;100946.25;4196436;28;20374;-68
2023/09/01 09:31:15;;;;;;;;;;;;;;;15.56;72.45;100949.59;4196178;28;19932;-67
2023/09/01 09:33:17;;;;;;;;;;;;;;;15.59;71.89;100950.00;4196305;28;20014;-68
2023/09/01 09:35:24;;;;;;;;;;;;;;;15.62;71.79;100956.94;4196345;28;20027;-68
2023/09/01 09:37:26;;;;;;;;;;;;;;;15.63;71.41;100959.47;4196895;28;20007;-68
2023/09/01 09:39:27;;;;;;;;;;;;;;;15.66;71.56;100958.22;4195848;28;20580;-68
2023/09/01 09:41:31;;;;;;;;;;;;;;;15.68;71.22;100954.22;4195980;28;20015;-68
2023/09/01 09:43:42;;;;;;;;;;;;;;;15.72;71.12;100960.13;4196186;28;20054;-69
2023/09/01 09:45:44;;;;;;;;;;;;;;;15.74;71.23;100955.31;4196350;28;20020;-69
2023/09/01 09:47:45;;;;;;;;;;;;;;;15.76;70.97;100958.66;4196698;28;20035;-69
2023/09/01 09:49:47;;;;;;;;;;;;;;;15.77;70.99;100954.91;4192697;28;19924;-69
2023/09/01 09:51:54;;;;;;;;;;;;;;;15.78;70.78;100962.06;4193041;28;19936;-69
2023/09/01 09:53:56;;;;;;;;;;;;;;;15.79;71.03;100952.81;4186562;28;20027;-68
2023/09/01 09:55:58;;;;;;;;;;;;;;;15.80;70.53;100950.97;4190623;28;20019;-72
2023/09/01 09:58:05;;;;;;;;;;;;;;;15.82;70.99;100960.56;4192178;28;20099;-70
2023/09/01 10:00:10;;;;;;;;;;;;;;;15.83;70.67;100954.09;4193952;28;20007;-73
2023/09/01 10:02:17;;;;;;;;;;;;;;;15.86;71.05;100961.00;4194766;28;20035;-72
2023/09/01 10:04:19;;;;;;;;;;;;;;;15.87;71.17;100954.50;4195002;28;20008;-72
2023/09/01 10:06:22;;;;;;;;;;;;;;;15.89;71.43;100959.75;4195421;28;20371;-73
2023/09/01 10:08:26;;;;;;;;;;;;;;;15.89;71.16;100957.84;4196400;28;20028;-72
2023/09/01 10:10:28;;;;;;;;;;;;;;;15.91;71.45;100958.50;4195224;28;20019;-73
2023/09/01 10:12:30;;;;;;;;;;;;;;;15.94;71.47;100959.97;4195453;28;20016;-70
2023/09/01 10:14:35;;;;;;;;;;;;;;;15.97;71.05;100959.56;4195903;28;20640;-73
2023/09/01 10:16:37;;;;;;;;;;;;;;;15.99;70.92;100965.66;4195758;28;20019;-72
2023/09/01 10:18:39;;;;;;;;;;;;;;;16.01;71.05;100960.81;4194129;28;19996;-73
2023/09/01 10:20:43;;;;;;;;;;;;;;;16.03;71.04;100965.03;4195094;28;20020;-71
2023/09/01 10:22:45;;;;;;;;;;;;;;;16.06;70.79;100961.03;4195120;28;20011;-72
2023/09/01 10:25:05;;;;;;;;;;;;;;;16.08;70.64;100964.41;4195831;28;20327;-72
2023/09/01 10:27:09;;;;;;;;;;;;;;;16.11;70.47;100971.31;4196239;28;20552;-73
2023/09/01 10:29:11;;;;;;;;;;;;;;;16.15;69.92;100975.31;4194909;28;20055;-72